Time;durP1;ratioP1;P1;durP2;ratioP2;P2;SDS_P1;SDS_P2;PMS_P1;PMS_P2;Temp;Humidity;BMP_temperature;BMP_pressure;BME280_temperature;BME280_humidity;BME280_pressure;Samples;Min_cycle;Max_cycle;Signal;HPM_P1;HPM_P2
2023/03/12 00:00:48;;;;;;;0.27;0.27;;;-0.20;99.90;;;;;;5135691;27;20306;-86
2023/03/12 00:03:14;;;;;;;0.20;0.20;;;0.70;99.90;;;;;;5135986;27;20043;-86
2023/03/12 00:05:44;;;;;;;0.40;0.40;;;1.20;99.90;;;;;;5135225;27;20235;-87
2023/03/12 00:08:13;;;;;;;0.20;0.20;;;0.80;99.90;;;;;;5135244;27;20091;-86
2023/03/12 00:10:40;;;;;;;0.45;0.20;;;-1.00;99.90;;;;;;5101326;27;20055;-86
2023/03/12 00:13:06;;;;;;;0.47;0.25;;;-1.10;99.90;;;;;;5101057;27;20051;-87
2023/03/12 00:15:36;;;;;;;0.20;0.20;;;0.10;99.90;;;;;;5118278;27;20047;-90
2023/03/12 00:18:02;;;;;;;0.70;0.47;;;0.90;99.90;;;;;;5135259;27;20039;-86
2023/03/12 00:20:27;;;;;;;0.53;0.47;;;0.00;99.90;;;;;;5084076;27;20039;-86
2023/03/12 00:22:53;;;;;;;0.30;0.30;;;1.10;99.90;;;;;;5135086;27;20042;-86
2023/03/12 00:25:20;;;;;;;0.70;0.10;;;0.80;99.90;;;;;;5118438;27;20054;-87
2023/03/12 00:27:48;;;;;;;0.20;0.20;;;0.80;99.90;;;;;;5100758;27;20039;-86
2023/03/12 00:30:14;;;;;;;0.22;0.10;;;0.90;99.90;;;;;;5118043;27;20043;-87
2023/03/12 00:32:44;;;;;;;0.30;0.30;;;-0.40;99.90;;;;;;5151981;27;20043;-87
2023/03/12 00:35:10;;;;;;;0.63;0.40;;;0.10;99.90;;;;;;5101432;27;20043;-86
2023/03/12 00:37:37;;;;;;;0.10;0.10;;;-0.50;99.90;;;;;;5100932;27;20123;-88
2023/03/12 00:40:04;;;;;;;0.40;0.40;;;0.90;99.90;;;;;;5134781;27;20138;-86
2023/03/12 00:42:30;;;;;;;0.52;0.35;;;-0.70;99.90;;;;;;5100942;27;20043;-87
2023/03/12 00:44:56;;;;;;;0.25;0.10;;;-0.30;99.90;;;;;;5152304;27;20130;-87
2023/03/12 00:47:22;;;;;;;0.20;0.20;;;-0.30;99.90;;;;;;5117379;27;20131;-87
2023/03/12 00:49:47;;;;;;;2.90;0.90;;;-0.60;99.90;;;;;;5117783;27;20051;-87
2023/03/12 00:52:13;;;;;;;3.10;0.33;;;-0.80;99.90;;;;;;5117633;27;20468;-86
2023/03/12 00:54:39;;;;;;;0.73;0.57;;;0.40;99.90;;;;;;5133946;27;20104;-87
2023/03/12 00:57:05;;;;;;;0.30;0.30;;;-0.70;99.90;;;;;;5152356;27;20130;-87
2023/03/12 00:59:31;;;;;;;0.30;0.30;;;-0.90;99.90;;;;;;5100651;27;20039;-87
2023/03/12 01:01:57;;;;;;;1.20;0.30;;;0.10;99.90;;;;;;5117075;27;20577;-88
2023/03/12 01:04:23;;;;;;;0.60;0.53;;;0.50;99.90;;;;;;5133646;27;20082;-86
2023/03/12 01:06:48;;;;;;;0.33;0.33;;;-0.10;99.90;;;;;;5134137;27;20050;-87
2023/03/12 01:09:14;;;;;;;0.20;0.20;;;0.50;99.90;;;;;;5117747;27;20039;-87
2023/03/12 01:11:40;;;;;;;0.30;0.27;;;-1.00;99.90;;;;;;5100052;27;20039;-88
2023/03/12 01:14:07;;;;;;;0.03;0.03;;;-1.00;99.90;;;;;;5134402;27;20104;-87
2023/03/12 01:16:33;;;;;;;0.47;0.13;;;-1.00;99.90;;;;;;5100502;27;20464;-87
2023/03/12 01:19:00;;;;;;;0.23;0.20;;;-1.80;99.90;;;;;;5117064;27;20145;-87
2023/03/12 01:21:28;;;;;;;0.60;0.32;;;-1.10;99.90;;;;;;5134784;27;20143;-86
2023/03/12 01:23:54;;;;;;;0.30;0.28;;;0.30;99.90;;;;;;5099460;27;20046;-87
2023/03/12 01:26:20;;;;;;;0.10;0.10;;;0.20;99.90;;;;;;5100265;27;20042;-87
2023/03/12 01:28:45;;;;;;;0.50;0.50;;;0.40;99.90;;;;;;5116442;27;20495;-87
2023/03/12 01:31:14;;;;;;;0.97;0.70;;;-1.10;99.90;;;;;;5099806;27;20053;-87
2023/03/12 01:33:44;;;;;;;0.30;0.30;;;-0.20;99.90;;;;;;5100174;27;20046;-86
2023/03/12 01:36:26;;;;;;;0.52;0.30;;;-0.20;99.90;;;;;;5100110;27;20043;-87
2023/03/12 01:38:54;;;;;;;1.48;1.27;;;-1.00;99.90;;;;;;5133862;27;20043;-87
2023/03/12 01:41:22;;;;;;;0.45;0.45;;;-1.00;99.90;;;;;;5097061;28;20064;-86
2023/03/12 01:43:50;;;;;;;0.10;0.10;;;-1.00;99.90;;;;;;5112673;28;20047;-87
2023/03/12 01:46:23;;;;;;;0.30;0.30;;;-0.50;99.90;;;;;;5096808;28;20044;-87
2023/03/12 01:48:56;;;;;;;0.38;0.38;;;0.60;99.90;;;;;;5113149;28;20048;-87
2023/03/12 01:51:26;;;;;;;1.00;0.65;;;0.10;99.90;;;;;;5079536;28;20051;-87
2023/03/12 01:53:56;;;;;;;0.90;0.45;;;0.20;99.90;;;;;;5113022;28;20047;-87
2023/03/12 01:56:29;;;;;;;0.57;0.55;;;0.60;99.90;;;;;;5113119;28;20079;-86
2023/03/12 01:58:58;;;;;;;0.73;0.73;;;-0.70;99.90;;;;;;5112839;28;20048;-86
2023/03/12 02:01:24;;;;;;;0.47;0.47;;;-0.80;99.90;;;;;;5096154;28;20044;-86
2023/03/12 02:03:52;;;;;;;4.82;0.65;;;0.20;99.90;;;;;;5078435;28;20508;-87
2023/03/12 02:06:24;;;;;;;0.30;0.30;;;-0.90;99.90;;;;;;5079097;28;20083;-87
2023/03/12 02:08:50;;;;;;;0.40;0.40;;;-0.10;99.90;;;;;;5078693;28;20138;-87
2023/03/12 02:11:15;;;;;;;1.40;0.50;;;-0.70;99.90;;;;;;5095839;28;20039;-87
2023/03/12 02:13:41;;;;;;;0.73;0.73;;;0.50;99.90;;;;;;5078903;28;20044;-87
2023/03/12 02:16:08;;;;;;;0.47;0.33;;;-0.70;99.90;;;;;;5112247;28;20042;-87
2023/03/12 02:18:34;;;;;;;0.98;0.50;;;-0.60;99.90;;;;;;5113092;28;20058;-87
2023/03/12 02:21:15;;;;;;;1.40;0.82;;;-0.70;99.90;;;;;;5095242;28;20043;-86
2023/03/12 02:24:07;;;;;;;0.52;0.52;;;-0.60;99.90;;;;;;5095637;28;20462;-87
2023/03/12 02:26:36;;;;;;;0.20;0.10;;;0.20;99.90;;;;;;5095645;28;20039;-86
2023/03/12 02:29:02;;;;;;;0.13;0.13;;;-0.50;99.90;;;;;;5112146;28;20051;-87
2023/03/12 02:31:42;;;;;;;0.20;0.20;;;0.90;99.90;;;;;;5129435;27;20044;-87
2023/03/12 02:34:08;;;;;;;0.35;0.35;;;-0.50;99.90;;;;;;5095292;28;20142;-87
2023/03/12 02:36:34;;;;;;;0.10;0.10;;;0.40;99.90;;;;;;5095579;28;20458;-87
2023/03/12 02:39:00;;;;;;;0.35;0.35;;;0.40;99.90;;;;;;5094437;28;20444;-86
2023/03/12 02:41:30;;;;;;;0.20;0.20;;;0.70;99.90;;;;;;5095910;28;20048;-87
2023/03/12 02:44:08;;;;;;;0.20;0.20;;;0.70;99.90;;;;;;5078425;28;20039;-87
2023/03/12 02:46:42;;;;;;;0.30;0.30;;;0.50;99.90;;;;;;5078891;28;20052;-87
2023/03/12 02:49:10;;;;;;;0.22;0.22;;;-0.40;99.90;;;;;;5095018;28;20473;-86
2023/03/12 02:51:36;;;;;;;0.13;0.10;;;-0.30;99.90;;;;;;5078391;28;20075;-88
2023/03/12 02:54:02;;;;;;;0.30;0.30;;;-0.30;99.90;;;;;;5078326;28;20109;-87
2023/03/12 02:56:28;;;;;;;0.10;0.10;;;-0.30;99.90;;;;;;5078558;28;20493;-89
2023/03/12 02:58:54;;;;;;;0.77;0.20;;;-0.30;99.90;;;;;;5111808;28;20047;-89
2023/03/12 03:01:20;;;;;;;0.33;0.33;;;-0.30;99.90;;;;;;5095313;28;20392;-87
2023/03/12 03:03:46;;;;;;;0.10;0.10;;;0.10;99.90;;;;;;5095099;28;20047;-86
2023/03/12 03:06:12;;;;;;;0.33;0.27;;;0.80;99.90;;;;;;5061340;28;20135;-87
2023/03/12 03:08:38;;;;;;;0.40;0.30;;;-0.30;99.90;;;;;;5095044;28;20051;-87
2023/03/12 03:11:04;;;;;;;0.30;0.30;;;-0.20;99.90;;;;;;5078016;28;20051;-87
2023/03/12 03:13:31;;;;;;;1.02;0.52;;;-0.10;99.90;;;;;;5077921;28;20039;-87
2023/03/12 03:15:58;;;;;;;0.77;0.77;;;-0.20;99.90;;;;;;5077888;28;20383;-88
2023/03/12 03:18:24;;;;;;;0.47;0.47;;;-0.10;99.90;;;;;;5078258;28;20067;-87
2023/03/12 03:20:58;;;;;;;0.20;0.20;;;-0.20;99.90;;;;;;5078424;28;20047;-86
2023/03/12 03:23:24;;;;;;;0.77;0.75;;;-0.20;99.90;;;;;;5078102;28;20061;-87
2023/03/12 03:25:51;;;;;;;0.20;0.20;;;0.80;99.90;;;;;;5095124;28;20565;-86
2023/03/12 03:28:21;;;;;;;0.20;0.20;;;-0.20;99.90;;;;;;5078867;28;20055;-87
2023/03/12 03:30:47;;;;;;;0.43;0.20;;;0.60;99.90;;;;;;5082043;28;20043;-86
2023/03/12 03:33:13;;;;;;;0.30;0.30;;;-0.20;99.90;;;;;;5098257;28;20048;-86
2023/03/12 03:35:39;;;;;;;0.67;0.60;;;0.10;99.90;;;;;;5098801;28;20413;-86
2023/03/12 03:38:06;;;;;;;0.50;0.50;;;1.10;99.90;;;;;;5081871;28;20134;-87
2023/03/12 03:40:32;;;;;;;0.70;0.65;;;0.30;99.90;;;;;;5098144;28;20082;-87
2023/03/12 03:42:57;;;;;;;0.50;0.50;;;0.50;99.90;;;;;;5098728;28;20485;-89
2023/03/12 03:45:23;;;;;;;1.70;0.43;;;0.00;99.90;;;;;;5115531;28;20040;-87
2023/03/12 03:47:49;;;;;;;0.37;0.37;;;0.80;99.90;;;;;;5115501;28;20032;-87
2023/03/12 03:50:15;;;;;;;0.10;0.10;;;0.00;99.90;;;;;;5098319;28;20394;-87
2023/03/12 03:52:43;;;;;;;0.20;0.20;;;0.00;99.90;;;;;;5081319;28;20504;-87
2023/03/12 03:55:09;;;;;;;0.28;0.20;;;0.90;99.90;;;;;;5115274;28;20134;-87
2023/03/12 03:57:35;;;;;;;0.20;0.20;;;0.00;99.90;;;;;;5115231;28;20086;-87
2023/03/12 04:00:01;;;;;;;0.53;0.30;;;1.50;99.90;;;;;;5098218;28;20051;-91
2023/03/12 04:02:27;;;;;;;0.27;0.27;;;0.00;99.90;;;;;;5098343;28;20076;-87
2023/03/12 04:04:57;;;;;;;0.27;0.27;;;0.20;99.90;;;;;;5098709;28;20374;-87
2023/03/12 04:07:23;;;;;;;0.20;0.20;;;0.90;99.90;;;;;;5081142;28;20069;-87
2023/03/12 04:09:50;;;;;;;0.10;0.10;;;0.10;99.90;;;;;;5098443;28;20126;-88
2023/03/12 04:12:16;;;;;;;0.30;0.20;;;1.30;99.90;;;;;;5097998;28;20047;-87
2023/03/12 04:14:42;;;;;;;0.30;0.30;;;0.10;99.90;;;;;;5115088;28;20134;-87
2023/03/12 04:17:08;;;;;;;0.20;0.10;;;0.10;99.90;;;;;;5097929;28;20880;-87
2023/03/12 04:19:34;;;;;;;0.68;0.68;;;0.10;99.90;;;;;;5115168;28;20048;-87
2023/03/12 04:22:00;;;;;;;1.25;0.68;;;1.30;99.90;;;;;;5098091;28;20047;-87
2023/03/12 04:24:26;;;;;;;0.23;0.23;;;0.10;99.90;;;;;;5097717;28;20039;-87
2023/03/12 04:26:52;;;;;;;2.90;0.37;;;1.30;99.90;;;;;;5098274;28;20326;-87
2023/03/12 04:29:18;;;;;;;0.40;0.40;;;0.10;99.90;;;;;;5097515;28;20040;-87
2023/03/12 04:31:44;;;;;;;0.22;0.22;;;1.10;99.90;;;;;;5097828;28;20447;-87
2023/03/12 04:34:13;;;;;;;0.20;0.20;;;1.50;99.90;;;;;;5080595;28;20047;-87
2023/03/12 04:36:39;;;;;;;0.60;0.30;;;0.20;99.90;;;;;;5097622;28;20122;-87
2023/03/12 04:39:08;;;;;;;0.60;0.60;;;0.10;99.90;;;;;;5097195;28;20169;-89
2023/03/12 04:41:35;;;;;;;0.40;0.40;;;1.50;99.90;;;;;;5097223;28;20441;-87
2023/03/12 04:44:01;;;;;;;1.15;0.95;;;1.30;99.90;;;;;;5080733;28;20104;-87
2023/03/12 04:46:27;;;;;;;0.28;0.28;;;0.20;99.90;;;;;;5097438;28;20051;-87
2023/03/12 04:48:53;;;;;;;0.65;0.20;;;0.20;99.90;;;;;;5097538;28;20112;-87
2023/03/12 04:51:19;;;;;;;0.30;0.30;;;0.20;99.90;;;;;;5080141;28;20075;-87
2023/03/12 04:53:45;;;;;;;0.37;0.30;;;0.20;99.90;;;;;;5080956;28;20051;-87
2023/03/12 04:56:13;;;;;;;0.50;0.33;;;1.20;99.90;;;;;;5097092;28;20044;-87
2023/03/12 04:58:39;;;;;;;1.15;0.43;;;0.30;99.90;;;;;;5114335;28;20461;-87
2023/03/12 05:01:04;;;;;;;0.10;0.10;;;0.30;99.90;;;;;;5097307;28;20127;-87
2023/03/12 05:03:30;;;;;;;0.33;0.10;;;0.40;99.90;;;;;;5097059;28;20143;-86
2023/03/12 05:05:56;;;;;;;0.87;0.40;;;0.30;99.90;;;;;;5097359;28;20048;-87
2023/03/12 05:08:22;;;;;;;0.00;0.00;;;0.40;99.90;;;;;;5079856;28;20040;-86
2023/03/12 05:10:48;;;;;;;0.33;0.33;;;0.90;99.90;;;;;;5096781;28;20050;-87
2023/03/12 05:13:19;;;;;;;0.13;0.13;;;1.70;99.90;;;;;;5079524;28;20090;-87
2023/03/12 05:15:46;;;;;;;0.70;0.35;;;0.30;99.90;;;;;;5097037;28;20101;-86
2023/03/12 05:18:12;;;;;;;0.85;0.80;;;1.50;99.90;;;;;;5079854;28;20051;-88
2023/03/12 05:20:38;;;;;;;2.43;0.83;;;0.40;99.90;;;;;;5080114;28;20116;-87
2023/03/12 05:23:04;;;;;;;0.63;0.40;;;1.80;99.90;;;;;;5063459;28;20040;-87
2023/03/12 05:25:30;;;;;;;0.20;0.20;;;0.40;99.90;;;;;;5096296;28;20610;-87
2023/03/12 05:27:56;;;;;;;0.30;0.30;;;1.00;99.90;;;;;;5096329;28;20126;-87
2023/03/12 05:30:21;;;;;;;0.23;0.20;;;0.40;99.90;;;;;;5096343;28;20055;-87
2023/03/12 05:32:47;;;;;;;1.37;0.50;;;0.40;99.90;;;;;;5096461;28;20088;-86
2023/03/12 05:35:13;;;;;;;0.50;0.40;;;0.50;99.90;;;;;;5079334;28;20046;-89
2023/03/12 05:37:41;;;;;;;1.00;0.80;;;1.80;99.90;;;;;;5079545;28;20085;-86
2023/03/12 05:40:09;;;;;;;0.45;0.20;;;0.50;99.90;;;;;;5079208;27;20094;-86
2023/03/12 05:42:35;;;;;;;0.73;0.30;;;0.40;99.90;;;;;;5096118;28;20383;-86
2023/03/12 05:45:02;;;;;;;0.30;0.30;;;0.50;99.90;;;;;;5096595;28;20046;-86
2023/03/12 05:47:28;;;;;;;;;;;0.50;99.90;;;;;;5113523;28;20054;-87
2023/03/12 05:49:53;;;;;;;0.17;0.17;;;0.50;99.90;;;;;;5113457;28;19920;-87
2023/03/12 05:52:19;;;;;;;0.23;0.23;;;1.20;99.90;;;;;;5078719;28;20050;-87
2023/03/12 05:54:45;;;;;;;0.50;0.47;;;1.40;99.90;;;;;;5079570;28;20130;-87
2023/03/12 05:57:10;;;;;;;0.40;0.33;;;0.80;99.90;;;;;;5062880;28;20051;-86
2023/03/12 05:59:36;;;;;;;0.77;0.30;;;0.50;99.90;;;;;;5061600;28;20052;-86
2023/03/12 06:02:02;;;;;;;1.17;0.50;;;0.70;99.90;;;;;;5095963;28;20550;-87
2023/03/12 06:04:28;;;;;;;0.57;0.57;;;1.10;99.90;;;;;;5095818;28;20067;-87
2023/03/12 06:06:54;;;;;;;1.20;0.80;;;0.50;99.90;;;;;;5096183;28;20051;-86
2023/03/12 06:09:20;;;;;;;0.80;0.53;;;1.30;99.90;;;;;;5095776;28;20389;-87
2023/03/12 06:11:45;;;;;;;0.50;0.50;;;0.80;99.90;;;;;;5095931;28;20079;-87
2023/03/12 06:14:11;;;;;;;1.17;0.33;;;0.50;99.90;;;;;;5079051;28;20086;-87
2023/03/12 06:16:37;;;;;;;0.33;0.33;;;0.50;99.90;;;;;;5078733;28;20040;-87
2023/03/12 06:19:04;;;;;;;0.60;0.60;;;0.50;99.90;;;;;;5095541;28;20286;-87
2023/03/12 06:21:32;;;;;;;0.70;0.70;;;0.50;99.90;;;;;;5095506;28;20043;-86
2023/03/12 06:23:58;;;;;;;0.85;0.50;;;0.50;99.90;;;;;;5081746;28;20066;-86
2023/03/12 06:26:24;;;;;;;0.73;0.65;;;0.80;99.90;;;;;;5077943;28;20525;-87
2023/03/12 06:28:51;;;;;;;0.82;0.82;;;1.10;99.90;;;;;;5078914;28;20046;-86
2023/03/12 06:31:18;;;;;;;0.68;0.68;;;1.90;99.90;;;;;;5078941;28;20089;-86
2023/03/12 06:33:43;;;;;;;0.82;0.60;;;0.60;99.90;;;;;;5095041;28;20058;-87
2023/03/12 06:36:13;;;;;;;0.70;0.50;;;0.60;99.90;;;;;;5078566;28;20043;-87
2023/03/12 06:38:40;;;;;;;0.90;0.45;;;1.80;99.90;;;;;;5094811;28;20584;-86
2023/03/12 06:41:09;;;;;;;0.52;0.52;;;0.60;99.90;;;;;;5095058;28;20096;-87
2023/03/12 06:43:36;;;;;;;0.68;0.55;;;0.60;99.90;;;;;;5094785;28;20040;-87
2023/03/12 06:46:03;;;;;;;0.90;0.45;;;0.70;99.90;;;;;;5098252;28;20385;-86
2023/03/12 06:48:29;;;;;;;;;;;0.70;99.90;;;;;;5112499;28;20406;-87
2023/03/12 06:50:55;;;;;;;1.08;0.63;;;0.70;99.90;;;;;;5112402;28;19920;-87
2023/03/12 06:53:21;;;;;;;2.03;0.60;;;0.70;99.90;;;;;;5111896;28;20131;-90
2023/03/12 06:55:49;;;;;;;0.45;0.45;;;1.00;99.90;;;;;;5095076;28;20047;-86
2023/03/12 06:58:16;;;;;;;0.65;0.38;;;1.30;99.90;;;;;;5095200;28;20386;-86
2023/03/12 07:00:41;;;;;;;1.00;0.70;;;0.70;99.90;;;;;;5112608;28;20051;-86
2023/03/12 07:03:07;;;;;;;0.20;0.20;;;0.80;99.90;;;;;;5095886;28;20051;-86
2023/03/12 07:05:33;;;;;;;1.60;0.77;;;0.80;99.90;;;;;;5082309;28;20126;-87
2023/03/12 07:07:58;;;;;;;0.40;0.40;;;0.80;99.90;;;;;;5116428;28;20486;-86
2023/03/12 07:10:27;;;;;;;0.50;0.50;;;0.90;99.90;;;;;;5099280;28;20044;-90
2023/03/12 07:12:53;;;;;;;0.43;0.43;;;1.00;99.90;;;;;;5082035;28;20086;-86
2023/03/12 07:15:19;;;;;;;1.17;0.50;;;2.20;99.90;;;;;;5116393;28;20474;-86
2023/03/12 07:17:45;;;;;;;0.30;0.30;;;2.30;99.90;;;;;;5115677;28;20123;-87
2023/03/12 07:20:11;;;;;;;0.97;0.80;;;1.00;99.90;;;;;;5116534;27;20055;-86
2023/03/12 07:22:39;;;;;;;0.63;0.63;;;1.00;99.90;;;;;;5082086;28;20183;-87
2023/03/12 07:25:05;;;;;;;0.63;0.63;;;1.00;99.90;;;;;;5116334;28;20100;-89
2023/03/12 07:27:30;;;;;;;0.67;0.57;;;0.90;99.90;;;;;;5100058;28;20044;-86
2023/03/12 07:29:56;;;;;;;0.37;0.37;;;2.10;99.90;;;;;;5103108;28;20044;-87
2023/03/12 07:32:22;;;;;;;1.03;0.43;;;0.80;99.90;;;;;;5104585;28;20040;-84
2023/03/12 07:34:47;;;;;;;0.60;0.50;;;1.20;99.90;;;;;;5104082;28;20039;-86
2023/03/12 07:37:13;;;;;;;0.83;0.67;;;1.00;99.90;;;;;;5102443;28;20040;-90
2023/03/12 07:39:39;;;;;;;0.40;0.40;;;0.80;99.90;;;;;;5098504;28;20385;-87
2023/03/12 07:42:05;;;;;;;0.60;0.50;;;0.80;99.90;;;;;;5151899;27;20059;-87
2023/03/12 07:44:31;;;;;;;0.50;0.50;;;0.70;99.90;;;;;;5118282;27;20055;-87
2023/03/12 07:46:56;;;;;;;0.75;0.68;;;2.00;99.90;;;;;;5085484;27;20058;-87
2023/03/12 07:49:22;;;;;;;0.70;0.67;;;0.70;99.90;;;;;;5102591;27;20400;-83
2023/03/12 07:51:48;;;;;;;0.40;0.40;;;1.40;99.90;;;;;;5118766;27;20039;-85
2023/03/12 07:54:13;;;;;;;0.80;0.80;;;1.20;99.90;;;;;;5102343;27;20047;-87
2023/03/12 07:56:39;;;;;;;0.63;0.63;;;0.90;99.90;;;;;;5118229;27;20047;-87
2023/03/12 07:59:05;;;;;;;1.10;0.77;;;1.00;99.90;;;;;;5135851;27;20043;-84
2023/03/12 08:01:31;;;;;;;0.80;0.80;;;0.70;99.90;;;;;;5101647;27;20068;-86
2023/03/12 08:04:01;;;;;;;0.60;0.53;;;0.70;99.90;;;;;;5118307;27;20054;-84
2023/03/12 08:06:28;;;;;;;0.65;0.65;;;1.40;99.90;;;;;;5101202;27;20057;-84
2023/03/12 08:08:54;;;;;;;0.57;0.50;;;1.20;99.90;;;;;;5101136;27;20047;-83
2023/03/12 08:11:20;;;;;;;0.73;0.53;;;1.40;99.90;;;;;;5118483;27;20084;-85
2023/03/12 08:13:46;;;;;;;0.40;0.40;;;1.50;99.90;;;;;;5100378;27;20039;-85
2023/03/12 08:16:13;;;;;;;1.60;1.15;;;2.00;99.90;;;;;;5101194;27;20043;-89
2023/03/12 08:18:41;;;;;;;0.52;0.50;;;1.30;99.90;;;;;;5135117;27;20125;-87
2023/03/12 08:21:07;;;;;;;1.52;0.50;;;0.70;99.90;;;;;;5118322;27;20121;-84
2023/03/12 08:23:34;;;;;;;0.47;0.47;;;1.90;99.90;;;;;;5118416;27;20051;-88
2023/03/12 08:26:00;;;;;;;1.00;0.50;;;1.30;99.90;;;;;;5118345;27;20043;-87
2023/03/12 08:28:26;;;;;;;0.33;0.33;;;0.30;99.90;;;;;;5101055;27;20481;-87
2023/03/12 08:30:53;;;;;;;1.90;0.70;;;0.80;99.90;;;;;;5101864;27;20092;-87
2023/03/12 08:33:20;;;;;;;0.57;0.57;;;0.80;99.90;;;;;;5102346;27;20043;-86
2023/03/12 08:35:47;;;;;;;2.08;0.85;;;0.80;99.90;;;;;;5118779;27;20092;-86
2023/03/12 08:38:13;;;;;;;1.10;0.70;;;2.10;99.90;;;;;;5137345;27;20091;-88
2023/03/12 08:40:38;;;;;;;1.03;0.97;;;2.10;99.90;;;;;;5147372;27;20078;-86
2023/03/12 08:43:06;;;;;;;2.87;0.80;;;0.80;99.90;;;;;;5100916;28;20055;-86
2023/03/12 08:45:32;;;;;;;0.88;0.60;;;0.70;99.90;;;;;;5082046;28;20082;-86
2023/03/12 08:47:58;;;;;;;2.22;0.82;;;0.70;99.90;;;;;;5080604;28;20069;-86
2023/03/12 08:50:27;;;;;;;1.20;0.80;;;1.70;99.90;;;;;;5098072;28;20106;-87
2023/03/12 08:52:57;;;;;;;3.50;0.85;;;1.40;99.90;;;;;;5099632;28;20053;-86
2023/03/12 08:55:23;;;;;;;1.92;0.95;;;0.80;99.90;;;;;;5081361;28;20051;-87
2023/03/12 08:57:48;;;;;;;0.43;0.37;;;0.80;99.90;;;;;;5082175;28;20050;-86
2023/03/12 09:00:16;;;;;;;0.50;0.47;;;0.80;99.90;;;;;;5080491;28;20126;-87
2023/03/12 09:02:46;;;;;;;1.27;0.88;;;0.90;99.90;;;;;;5080481;28;20039;-88
2023/03/12 09:05:12;;;;;;;1.13;0.80;;;2.00;99.90;;;;;;5097637;28;20438;-88
2023/03/12 09:07:38;;;;;;;0.90;0.63;;;1.80;99.90;;;;;;5079900;28;20053;-91
2023/03/12 09:10:04;;;;;;;3.77;1.07;;;0.90;99.90;;;;;;5097229;28;20039;-88
2023/03/12 09:12:30;;;;;;;0.93;0.90;;;0.90;99.90;;;;;;5114198;28;20036;-91
2023/03/12 09:14:56;;;;;;;0.60;0.60;;;0.90;99.90;;;;;;5079626;28;20134;-90
2023/03/12 09:17:21;;;;;;;3.43;0.70;;;1.10;99.90;;;;;;5079925;28;20046;-86
2023/03/12 09:19:47;;;;;;;1.00;0.90;;;0.80;99.90;;;;;;5096526;28;20043;-87
2023/03/12 09:22:13;;;;;;;0.50;0.50;;;0.90;99.90;;;;;;5060538;28;20043;-92
2023/03/12 09:24:42;;;;;;;0.93;0.40;;;0.90;99.90;;;;;;5077206;28;20485;-93
2023/03/12 09:27:32;;;;;;;2.75;0.60;;;-0.20;99.90;;;;;;5080070;28;20044;-95
2023/03/12 09:30:18;;;;;;;3.60;0.80;;;0.90;99.90;;;;;;5113427;28;20059;-93
2023/03/12 09:32:53;;;;;;;0.40;0.40;;;1.10;99.90;;;;;;5078659;28;20039;-91
2023/03/12 09:35:19;;;;;;;0.43;0.43;;;0.90;99.90;;;;;;5078039;28;20051;-93
2023/03/12 09:37:51;;;;;;;1.70;0.50;;;1.10;99.90;;;;;;5078998;28;20054;-92
2023/03/12 09:40:23;;;;;;;0.55;0.55;;;1.10;99.90;;;;;;5095780;28;20043;-93
2023/03/12 09:42:54;;;;;;;2.45;1.02;;;1.00;99.90;;;;;;5095961;28;20168;-89
2023/03/12 09:45:27;;;;;;;0.75;0.75;;;1.20;99.90;;;;;;5078212;28;20088;-88
2023/03/12 09:48:00;;;;;;;0.60;0.60;;;1.00;99.90;;;;;;5078614;28;20135;-92
2023/03/12 09:50:30;;;;;;;0.68;0.68;;;1.00;99.90;;;;;;5096502;28;20098;-89
2023/03/12 09:53:29;;;;;;;0.40;0.40;;;1.00;99.90;;;;;;5098499;28;20039;-92
2023/03/12 09:56:01;;;;;;;1.20;0.50;;;1.00;99.90;;;;;;5085573;28;20043;-91
2023/03/12 09:58:31;;;;;;;1.00;0.93;;;1.10;99.90;;;;;;5086741;28;20052;-92
2023/03/12 10:01:18;;;;;;;1.50;0.52;;;1.20;99.90;;;;;;5086392;28;20141;-95
2023/03/12 10:03:55;;;;;;;0.32;0.22;;;1.00;99.90;;;;;;5085413;28;20126;-93
2023/03/12 10:06:34;;;;;;;0.82;0.82;;;1.10;99.90;;;;;;5086319;28;20083;-94
2023/03/12 10:09:25;;;;;;;6.38;1.23;;;0.60;99.90;;;;;;5109994;28;20035;-95
2023/03/12 10:12:22;;;;;;;0.73;0.73;;;1.10;99.90;;;;;;5085081;28;20096;-95
2023/03/12 10:15:21;;;;;;;1.77;0.85;;;1.10;99.90;;;;;;5082069;28;20080;-94
2023/03/12 10:17:58;;;;;;;0.85;0.85;;;1.10;99.90;;;;;;5080120;28;20175;-91
2023/03/12 10:20:40;;;;;;;1.77;0.75;;;1.10;99.90;;;;;;5079687;28;20050;-90
2023/03/12 10:23:27;;;;;;;2.63;1.02;;;1.20;99.90;;;;;;5081418;28;20104;-91
2023/03/12 10:26:16;;;;;;;1.85;0.82;;;1.10;99.90;;;;;;5095785;28;20513;-93
2023/03/12 10:28:51;;;;;;;2.97;1.10;;;1.20;99.90;;;;;;5080006;28;20046;-93
2023/03/12 10:31:26;;;;;;;2.03;1.23;;;1.30;99.90;;;;;;5079497;28;20161;-91
2023/03/12 10:34:00;;;;;;;1.55;1.15;;;1.40;99.90;;;;;;5097433;28;20052;-91
2023/03/12 10:36:32;;;;;;;1.70;1.48;;;1.70;99.90;;;;;;5095378;28;20062;-93
2023/03/12 10:38:58;;;;;;;2.72;1.00;;;1.30;99.90;;;;;;5078796;28;20059;-91
2023/03/12 10:41:29;;;;;;;1.33;1.23;;;1.60;99.90;;;;;;5078781;28;20059;-90
2023/03/12 10:44:02;;;;;;;1.48;0.43;;;1.60;99.90;;;;;;5098226;28;20066;-91
2023/03/12 10:46:58;;;;;;;1.17;1.08;;;1.30;99.90;;;;;;5099560;28;20047;-91
2023/03/12 10:49:34;;;;;;;2.40;1.65;;;1.40;99.90;;;;;;5083045;28;20414;-91
2023/03/12 10:52:18;;;;;;;0.88;0.75;;;1.50;99.90;;;;;;5116344;28;20084;-94
2023/03/12 10:54:50;;;;;;;3.83;1.15;;;1.50;99.90;;;;;;5098289;28;20047;-90
2023/03/12 10:57:19;;;;;;;0.75;0.70;;;1.50;99.90;;;;;;5082019;28;20047;-92
2023/03/12 10:59:47;;;;;;;1.58;1.05;;;1.80;99.90;;;;;;5082595;28;20039;-92
2023/03/12 11:02:44;;;;;;;1.27;0.88;;;1.60;99.90;;;;;;5081694;28;20040;-95
2023/03/12 11:05:30;;;;;;;0.85;0.60;;;1.70;99.90;;;;;;5081419;28;20043;-87
2023/03/12 11:07:59;;;;;;;0.30;0.30;;;1.80;99.90;;;;;;5096914;28;20077;-86
2023/03/12 11:10:39;;;;;;;0.90;0.47;;;2.70;99.90;;;;;;5097003;28;20055;-90
2023/03/12 11:13:36;;;;;;;1.83;1.38;;;2.80;99.90;;;;;;5087537;28;20044;-93
2023/03/12 11:16:18;;;;;;;0.73;0.40;;;2.60;99.90;;;;;;5084755;28;20048;-88
2023/03/12 11:19:03;;;;;;;2.92;0.80;;;3.30;99.90;;;;;;5132323;28;20086;-89
2023/03/12 11:21:32;;;;;;;1.08;0.50;;;1.00;99.90;;;;;;5099312;28;20134;-89
2023/03/12 11:23:58;;;;;;;1.02;0.90;;;2.00;99.90;;;;;;5096610;28;20073;-91
2023/03/12 11:26:33;;;;;;;1.30;0.57;;;2.10;99.90;;;;;;5129434;28;20134;-88
2023/03/12 11:29:05;;;;;;;1.83;0.47;;;2.20;99.90;;;;;;5078705;28;20059;-86
2023/03/12 11:31:48;;;;;;;0.95;0.32;;;2.20;99.90;;;;;;5078071;28;20047;-88
2023/03/12 11:34:29;;;;;;;0.65;0.50;;;2.20;99.90;;;;;;5095112;28;20043;-87
2023/03/12 11:41:14;;;;;;;0.55;0.45;;;2.30;99.90;;;;;;5117697;27;20042;-88
2023/03/12 11:43:43;;;;;;;0.63;0.63;;;2.40;99.90;;;;;;5098909;28;20149;-88
2023/03/12 11:46:36;;;;;;;0.30;0.25;;;2.70;99.90;;;;;;5116378;28;20050;-88
2023/03/12 11:52:51;;;;;;;;;;;2.70;99.90;;;;;;5138291;27;20091;-88
2023/03/12 12:29:02;;;;;;;0.65;0.30;;;3.70;99.90;;;;;;5137202;27;20043;-90
2023/03/12 12:31:43;;;;;;;;;;;3.80;99.90;;;;;;5136236;27;20070;-92
2023/03/12 12:34:29;;;;;;;1.17;0.68;;;3.90;99.90;;;;;;5135793;27;19929;-92
2023/03/12 12:41:02;;;;;;;0.35;0.30;;;4.10;99.90;;;;;;5136483;27;20396;-95
2023/03/12 12:43:36;;;;;;;0.95;0.88;;;4.20;99.90;;;;;;5093904;28;20047;-93
2023/03/12 12:46:07;;;;;;;0.15;0.15;;;4.30;99.90;;;;;;5081352;28;20043;-92
2023/03/12 12:49:14;;;;;;;0.63;0.30;;;4.40;99.90;;;;;;5097861;28;20043;-90
2023/03/12 12:56:08;;;;;;;0.05;0.05;;;4.60;99.90;;;;;;5115862;28;20034;-93
2023/03/12 13:02:36;;;;;;;0.00;0.00;;;5.10;99.90;;;;;;5112913;28;20034;-91
2023/03/12 13:08:49;;;;;;;;;;;5.10;99.90;;;;;;5115986;28;20068;-90
2023/03/12 13:15:25;;;;;;;1.30;0.20;;;5.50;99.90;;;;;;5113254;28;20555;-89
2023/03/12 13:21:40;;;;;;;0.35;0.28;;;5.90;99.90;;;;;;5113279;28;20035;-92
2023/03/12 13:24:20;;;;;;;0.40;0.40;;;6.10;99.90;;;;;;5097092;28;20056;-91
2023/03/12 13:27:08;;;;;;;0.25;0.20;;;6.10;99.90;;;;;;5079702;28;20047;-92
2023/03/12 13:29:37;;;;;;;0.10;0.10;;;6.20;99.90;;;;;;5079562;28;20619;-90
2023/03/12 13:32:04;;;;;;;1.52;0.28;;;6.20;99.90;;;;;;5080776;28;20043;-93
2023/03/12 13:37:55;;;;;;;0.20;0.20;;;6.20;99.90;;;;;;5115327;28;20065;-92
2023/03/12 13:41:00;;;;;;;0.20;0.20;;;6.30;99.90;;;;;;5096623;28;20047;-92
2023/03/12 13:43:38;;;;;;;0.85;0.43;;;6.30;99.90;;;;;;5082063;28;20059;-92
2023/03/12 13:46:19;;;;;;;1.00;0.50;;;6.30;99.90;;;;;;5080627;28;20056;-93
2023/03/12 13:48:47;;;;;;;0.60;0.35;;;6.40;99.90;;;;;;5117374;28;20039;-91
2023/03/12 13:51:22;;;;;;;1.35;0.70;;;6.40;99.90;;;;;;5081964;28;20100;-92
2023/03/12 13:53:56;;;;;;;0.20;0.20;;;6.40;99.90;;;;;;5081327;28;20040;-90
2023/03/12 13:56:32;;;;;;;2.03;0.28;;;6.50;99.90;;;;;;5080681;28;20435;-91
2023/03/12 13:59:16;;;;;;;0.45;0.25;;;6.60;99.90;;;;;;5081143;28;20133;-91
2023/03/12 14:01:47;;;;;;;0.75;0.30;;;6.80;99.90;;;;;;5100221;28;20369;-92
2023/03/12 14:04:48;;;;;;;0.50;0.40;;;6.90;99.90;;;;;;5099041;28;20153;-92
2023/03/12 14:07:34;;;;;;;0.65;0.20;;;7.00;99.90;;;;;;5075789;28;20094;-91
2023/03/12 14:10:25;;;;;;;0.32;0.32;;;7.10;99.90;;;;;;5080220;28;20134;-92
2023/03/12 14:13:03;;;;;;;1.60;0.20;;;7.10;99.90;;;;;;5080372;28;20044;-91
2023/03/12 14:15:29;;;;;;;0.50;0.20;;;7.10;99.90;;;;;;5080076;28;20463;-91
2023/03/12 14:17:59;;;;;;;0.33;0.30;;;7.10;99.90;;;;;;5099888;28;20096;-91
2023/03/12 14:20:27;;;;;;;0.10;0.10;;;7.20;99.90;;;;;;5080021;28;20282;-91